createdAt,value
2022-08-16T00:01:55.097Z,21.20
2022-08-16T00:04:22.597Z,19.23
2022-08-16T00:06:50.938Z,19.23
2022-08-16T00:09:17.893Z,16.77
2022-08-16T00:11:45.987Z,21.97
2022-08-16T00:14:16.746Z,18.00
2022-08-16T00:17:11.964Z,15.93
2022-08-16T00:19:41.155Z,13.70
2022-08-16T00:22:13.800Z,15.10
2022-08-16T00:24:44.555Z,17.97
2022-08-16T00:27:12.173Z,18.60
2022-08-16T00:29:39.082Z,20.93
2022-08-16T00:32:07.275Z,15.20
2022-08-16T00:34:43.569Z,18.03
2022-08-16T00:37:24.430Z,21.10
2022-08-16T00:39:58.582Z,18.40
2022-08-16T00:42:29.619Z,26.03
2022-08-16T00:45:06.527Z,21.53
2022-08-16T00:47:49.080Z,23.23
2022-08-16T00:50:17.202Z,24.03
2022-08-16T00:52:50.317Z,29.53
2022-08-16T00:55:19.888Z,24.00
2022-08-16T00:57:59.880Z,19.50
2022-08-16T01:00:29.858Z,22.73
2022-08-16T01:02:58.373Z,24.47
2022-08-16T01:05:25.304Z,26.77
2022-08-16T01:07:54.057Z,22.70
2022-08-16T01:10:31.271Z,23.03
2022-08-16T01:13:02.284Z,28.20
2022-08-16T01:15:32.755Z,24.17
2022-08-16T01:18:00.261Z,24.23
2022-08-16T01:20:30.578Z,29.83
2022-08-16T01:23:08.435Z,33.73
2022-08-16T01:25:40.744Z,29.97
2022-08-16T01:28:19.792Z,32.33
2022-08-16T01:30:50.745Z,30.70
2022-08-16T01:33:19.745Z,38.27
2022-08-16T01:35:52.826Z,31.00
2022-08-16T01:38:25.778Z,34.57
2022-08-16T01:41:01.869Z,32.37
2022-08-16T01:43:31.167Z,31.00
2022-08-16T01:45:59.897Z,29.70
2022-08-16T01:48:46.775Z,32.47
2022-08-16T01:51:16.363Z,22.23
2022-08-16T01:53:44.011Z,29.37
2022-08-16T01:56:24.724Z,25.17
2022-08-16T01:58:52.854Z,28.53
2022-08-16T02:01:19.913Z,24.83
2022-08-16T02:03:50.501Z,30.30
2022-08-16T02:06:33.932Z,25.17
2022-08-16T02:09:05.219Z,27.63
2022-08-16T02:11:47.743Z,24.90
2022-08-16T02:14:21.401Z,20.03
2022-08-16T02:16:48.460Z,18.87
2022-08-16T02:19:15.856Z,20.57
2022-08-16T02:22:08.531Z,19.60
2022-08-16T02:24:32.168Z,17.97
2022-08-16T02:27:09.463Z,19.87
2022-08-16T02:29:36.660Z,23.20
2022-08-16T02:32:49.319Z,19.70
2022-08-16T02:34:51.393Z,21.50
2022-08-16T02:37:23.372Z,15.60
2022-08-16T02:39:54.078Z,13.67
2022-08-16T02:42:22.544Z,16.47
2022-08-16T02:44:49.296Z,20.70
2022-08-16T02:47:25.077Z,27.07
2022-08-16T02:50:52.610Z,20.03
2022-08-16T02:52:43.750Z,21.27
2022-08-16T02:55:11.369Z,18.93
2022-08-16T02:57:42.563Z,21.07
2022-08-16T03:00:33.820Z,23.20
2022-08-16T03:03:03.414Z,15.13
2022-08-16T03:05:30.962Z,18.60
2022-08-16T03:07:58.671Z,19.57
2022-08-16T03:10:33.353Z,20.73
2022-08-16T03:13:02.302Z,18.43
2022-08-16T03:15:30.771Z,22.70
2022-08-16T03:17:57.978Z,19.90
2022-08-16T03:20:32.608Z,21.20
2022-08-16T03:23:01.903Z,15.57
2022-08-16T03:25:40.919Z,16.07
2022-08-16T03:28:13.003Z,18.70
2022-08-16T03:30:39.991Z,16.20
2022-08-16T03:33:07.503Z,20.50
2022-08-16T03:35:37.196Z,18.30
2022-08-16T03:38:34.055Z,17.40
2022-08-16T03:40:57.452Z,20.10
2022-08-16T03:43:51.968Z,19.90
2022-08-16T03:46:13.793Z,14.17
2022-08-16T03:49:00.595Z,16.57
2022-08-16T03:51:28.795Z,20.13
2022-08-16T03:54:00.732Z,16.23
2022-08-16T03:56:30.351Z,12.90
2022-08-16T03:58:58.719Z,17.10
2022-08-16T04:01:29.441Z,14.00
2022-08-16T04:03:57.190Z,11.90
2022-08-16T04:06:23.923Z,14.90
2022-08-16T04:08:51.416Z,15.47
2022-08-16T04:11:18.470Z,17.40
2022-08-16T04:14:01.032Z,14.47
2022-08-16T04:16:34.411Z,16.03
2022-08-16T04:19:02.918Z,18.40
2022-08-16T04:21:31.893Z,17.10
2022-08-16T04:23:59.310Z,16.70
2022-08-16T04:26:30.985Z,19.07
2022-08-16T04:29:18.298Z,17.07
2022-08-16T04:31:56.316Z,17.67
2022-08-16T04:34:26.562Z,13.90
2022-08-16T04:36:53.770Z,15.13
2022-08-16T04:39:23.942Z,13.53
2022-08-16T04:41:57.168Z,16.47
2022-08-16T04:44:32.387Z,18.93
2022-08-16T04:47:21.810Z,17.93
2022-08-16T04:49:52.580Z,16.70
2022-08-16T04:52:34.058Z,17.40
2022-08-16T04:55:06.008Z,21.30
2022-08-16T04:57:32.830Z,19.40
2022-08-16T04:59:59.567Z,17.83
2022-08-16T05:02:54.841Z,16.03
2022-08-16T05:05:23.549Z,19.20
2022-08-16T05:07:58.430Z,19.83
2022-08-16T05:10:28.030Z,17.83
2022-08-16T05:12:56.852Z,19.50
2022-08-16T05:15:23.694Z,20.13
2022-08-16T05:17:58.585Z,19.73
2022-08-16T05:20:38.413Z,18.37
2022-08-16T05:23:13.575Z,17.53
2022-08-16T05:25:48.216Z,20.67
2022-08-16T05:28:15.639Z,18.20
2022-08-16T05:30:43.210Z,22.93
2022-08-16T05:33:16.307Z,18.30
2022-08-16T05:35:45.002Z,19.50
2022-08-16T05:38:32.846Z,17.87
2022-08-16T05:41:07.026Z,20.27
2022-08-16T05:43:43.733Z,17.33
2022-08-16T05:46:28.803Z,22.30
2022-08-16T05:49:05.671Z,21.50
2022-08-16T05:51:37.653Z,21.97
2022-08-16T05:54:07.482Z,19.47
2022-08-16T05:56:37.673Z,23.00
2022-08-16T05:59:06.287Z,17.67
2022-08-16T06:01:38.296Z,18.73
2022-08-16T06:04:13.137Z,22.00
2022-08-16T06:06:56.016Z,19.00
2022-08-16T06:09:24.629Z,20.40
2022-08-16T06:11:52.411Z,26.03
2022-08-16T06:14:19.664Z,21.03
2022-08-16T06:16:50.902Z,19.43
2022-08-16T06:19:19.202Z,17.43
2022-08-16T06:21:46.030Z,22.93
2022-08-16T06:24:55.094Z,19.73
2022-08-16T06:27:08.964Z,17.67
2022-08-16T06:29:35.655Z,16.20
2022-08-16T06:32:02.639Z,15.10
2022-08-16T06:34:57.312Z,18.80
2022-08-16T06:37:19.608Z,17.70
2022-08-16T06:39:49.563Z,17.83
2022-08-16T06:42:18.388Z,14.80
2022-08-16T06:44:46.748Z,13.83
2022-08-16T06:47:17.213Z,15.53
2022-08-16T06:49:53.030Z,14.70
2022-08-16T06:52:57.708Z,16.73
2022-08-16T06:55:13.061Z,16.77
2022-08-16T06:57:41.299Z,15.03
2022-08-16T07:00:24.249Z,13.37
2022-08-16T07:02:53.996Z,16.30
2022-08-16T07:05:27.222Z,14.67
2022-08-16T07:08:08.738Z,15.10
2022-08-16T07:10:38.742Z,15.13
2022-08-16T07:13:12.211Z,13.20
2022-08-16T07:15:50.823Z,14.67
2022-08-16T07:18:18.489Z,15.27
2022-08-16T07:20:47.648Z,18.57
2022-08-16T07:23:15.089Z,13.60
2022-08-16T07:25:42.457Z,13.10
2022-08-16T07:28:12.129Z,13.30
2022-08-16T07:30:48.334Z,13.97
2022-08-16T07:33:16.341Z,16.77
2022-08-16T07:35:49.461Z,11.80
2022-08-16T07:38:19.564Z,9.70
2022-08-16T07:41:00.110Z,12.87
2022-08-16T07:43:28.821Z,12.80
2022-08-16T07:45:56.608Z,15.90
2022-08-16T07:48:24.591Z,11.93
2022-08-16T07:50:55.712Z,11.97
2022-08-16T07:53:28.955Z,12.30
2022-08-16T07:55:56.689Z,10.83
2022-08-16T07:58:34.993Z,10.00
2022-08-16T08:01:05.223Z,10.03
2022-08-16T08:03:39.936Z,10.70
2022-08-16T08:06:10.211Z,10.53
2022-08-16T08:08:51.078Z,9.67
2022-08-16T08:11:19.875Z,9.20
2022-08-16T08:13:48.527Z,8.43
2022-08-16T08:16:19.023Z,9.30
2022-08-16T08:18:49.784Z,11.67
2022-08-16T08:21:18.792Z,8.77
2022-08-16T08:23:45.616Z,8.50
2022-08-16T08:26:17.395Z,9.47
2022-08-16T08:28:44.869Z,8.97
2022-08-16T08:31:12.066Z,8.77
2022-08-16T08:33:47.326Z,8.50
2022-08-16T08:36:25.655Z,11.23
2022-08-16T08:39:00.395Z,12.90
2022-08-16T08:41:28.514Z,8.63
2022-08-16T08:43:56.625Z,8.97
2022-08-16T08:46:24.452Z,7.97
2022-08-16T08:48:59.869Z,11.87
2022-08-16T08:51:31.846Z,10.40
2022-08-16T08:54:03.311Z,10.37
2022-08-16T08:56:34.985Z,10.50
2022-08-16T08:59:12.791Z,11.23
2022-08-16T09:01:56.769Z,9.73
2022-08-16T09:04:25.973Z,15.73
2022-08-16T09:06:55.529Z,10.57
2022-08-16T09:09:22.761Z,10.20
2022-08-16T09:11:53.493Z,9.17
2022-08-16T09:14:31.220Z,8.63
2022-08-16T09:17:02.979Z,9.70
2022-08-16T09:19:33.937Z,12.87
2022-08-16T09:22:02.441Z,14.40
2022-08-16T09:24:52.886Z,7.80
2022-08-16T09:27:16.483Z,8.30
2022-08-16T09:29:44.872Z,8.70
2022-08-16T09:32:13.168Z,6.97
2022-08-16T09:34:58.523Z,7.03
2022-08-16T09:37:29.416Z,8.43
2022-08-16T09:39:57.334Z,7.90
2022-08-16T09:42:26.878Z,9.13
2022-08-16T09:45:11.371Z,8.47
2022-08-16T09:47:57.293Z,7.60
2022-08-16T09:50:37.018Z,7.77
2022-08-16T09:53:15.501Z,9.17
2022-08-16T09:55:49.602Z,5.60
2022-08-16T09:58:37.853Z,7.37
2022-08-16T10:01:08.438Z,10.23
2022-08-16T10:03:35.653Z,5.80
2022-08-16T10:06:02.564Z,6.50
2022-08-16T10:08:30.708Z,5.90
2022-08-16T10:10:57.631Z,7.60
2022-08-16T10:13:29.463Z,7.17
2022-08-16T10:15:58.081Z,6.13
2022-08-16T10:18:56.505Z,8.83
2022-08-16T10:21:13.821Z,6.73
2022-08-16T10:23:46.776Z,6.10
2022-08-16T10:27:20.711Z,8.70
2022-08-16T10:29:00.829Z,7.30
2022-08-16T10:31:45.664Z,7.50
2022-08-16T10:34:31.569Z,5.97
2022-08-16T10:36:59.750Z,5.67
2022-08-16T10:39:32.951Z,10.63
2022-08-16T10:42:08.662Z,6.30
2022-08-16T10:44:35.980Z,7.40
2022-08-16T10:47:03.249Z,5.83
2022-08-16T10:49:30.739Z,6.30
2022-08-16T10:52:03.394Z,7.17
2022-08-16T10:57:35.084Z,5.10
2022-08-16T11:00:04.739Z,6.93
2022-08-16T11:02:58.320Z,7.10
2022-08-16T11:05:59.414Z,9.13
2022-08-16T11:08:35.133Z,6.90
2022-08-16T11:11:18.504Z,6.47
2022-08-16T11:20:47.156Z,4.90
2022-08-16T11:23:22.314Z,4.97
2022-08-16T11:26:23.419Z,5.27
2022-08-16T11:31:28.476Z,4.87
2022-08-16T11:34:00.049Z,6.60
2022-08-16T11:36:28.802Z,6.93
2022-08-16T11:38:57.691Z,6.53
2022-08-16T11:41:34.456Z,6.30
2022-08-16T11:44:01.767Z,4.97
2022-08-16T11:46:44.469Z,5.17
2022-08-16T11:49:16.752Z,7.10
2022-08-16T11:51:45.702Z,4.60
2022-08-16T11:54:20.742Z,5.20
2022-08-16T11:56:53.022Z,4.97
2022-08-16T11:59:28.510Z,5.83
2022-08-16T12:02:31.589Z,7.23
2022-08-16T12:04:51.911Z,6.93
2022-08-16T12:07:23.895Z,5.10
2022-08-16T12:09:53.109Z,7.10
2022-08-16T12:12:20.384Z,5.70
2022-08-16T12:14:47.307Z,6.20
2022-08-16T12:17:56.528Z,6.60
2022-08-16T12:20:27.623Z,6.73
2022-08-16T12:23:04.917Z,5.33
2022-08-16T12:25:33.567Z,4.30
2022-08-16T12:28:02.890Z,14.93
2022-08-16T12:30:36.240Z,5.73
2022-08-16T12:33:07.380Z,8.63
2022-08-16T12:35:36.056Z,5.13
2022-08-16T12:38:37.894Z,3.90
2022-08-16T12:40:55.710Z,5.10
2022-08-16T12:43:24.744Z,5.23
2022-08-16T12:45:53.926Z,7.07
2022-08-16T12:48:33.866Z,3.90
2022-08-16T12:51:01.788Z,5.40
2022-08-16T12:53:32.065Z,4.47
2022-08-16T12:55:59.235Z,4.60
2022-08-16T12:58:49.884Z,5.73
2022-08-16T13:01:13.456Z,4.37
2022-08-16T13:03:41.917Z,3.83
2022-08-16T13:06:09.104Z,3.57
2022-08-16T13:08:37.680Z,4.40
2022-08-16T13:11:05.090Z,4.27
2022-08-16T13:13:34.795Z,4.27
2022-08-16T13:16:07.351Z,4.70
2022-08-16T13:18:41.936Z,3.50
2022-08-16T13:21:10.511Z,4.00
2022-08-16T13:23:43.283Z,3.90
2022-08-16T13:26:10.984Z,3.70
2022-08-16T13:28:37.767Z,3.70
2022-08-16T13:31:04.958Z,3.47
2022-08-16T13:33:35.431Z,13.53
2022-08-16T13:36:03.971Z,4.93
2022-08-16T13:38:37.172Z,4.03
2022-08-16T13:41:08.958Z,5.27
2022-08-16T13:43:36.159Z,3.83
2022-08-16T13:46:04.368Z,3.63
2022-08-16T13:48:42.774Z,5.83
2022-08-16T13:51:17.061Z,3.63
2022-08-16T13:53:45.321Z,4.63
2022-08-16T13:56:24.786Z,4.97
2022-08-16T13:58:54.730Z,6.03
2022-08-16T14:01:22.241Z,3.40
2022-08-16T14:03:49.649Z,5.13
2022-08-16T14:06:21.807Z,5.90
2022-08-16T14:08:59.244Z,5.30
2022-08-16T14:11:35.189Z,6.20
2022-08-16T14:14:05.365Z,6.57
2022-08-16T14:16:34.014Z,3.97
2022-08-16T14:19:02.319Z,3.83
2022-08-16T14:21:35.455Z,5.80
2022-08-16T14:24:12.841Z,4.17
2022-08-16T14:26:50.649Z,3.70
2022-08-16T14:31:46.235Z,3.80
2022-08-16T14:34:16.377Z,5.10
2022-08-16T14:36:43.702Z,4.73
2022-08-16T14:39:10.437Z,3.90
2022-08-16T14:41:39.585Z,5.40
2022-08-16T14:44:09.408Z,6.20
2022-08-16T14:46:36.217Z,3.27
2022-08-16T14:49:02.986Z,3.60
2022-08-16T14:51:29.833Z,4.27
2022-08-16T14:53:57.361Z,5.67
2022-08-16T14:56:39.014Z,4.40
2022-08-16T14:59:11.478Z,3.70
2022-08-16T15:01:52.130Z,4.40
2022-08-16T15:04:40.493Z,3.50
2022-08-16T15:07:14.296Z,3.50
2022-08-16T15:09:44.864Z,4.10
2022-08-16T15:12:31.290Z,3.77
2022-08-16T15:15:12.413Z,5.43
2022-08-16T15:17:41.561Z,4.50
2022-08-16T15:20:10.330Z,7.97
2022-08-16T15:22:39.537Z,3.47
2022-08-16T15:25:10.808Z,3.43
2022-08-16T15:27:39.361Z,3.37
2022-08-16T15:30:09.658Z,3.60
2022-08-16T15:33:00.416Z,5.93
2022-08-16T15:35:27.226Z,5.37
2022-08-16T15:37:56.748Z,3.93
2022-08-16T15:40:32.410Z,5.20
2022-08-16T15:43:03.477Z,4.53
2022-08-16T15:45:37.155Z,4.73
2022-08-16T15:48:05.417Z,3.70
2022-08-16T15:50:33.256Z,6.73
2022-08-16T15:53:03.792Z,3.60
2022-08-16T15:55:35.426Z,4.40
2022-08-16T15:58:35.612Z,3.77
2022-08-16T16:00:50.572Z,3.20
2022-08-16T16:03:20.065Z,3.33
2022-08-16T16:05:50.778Z,3.60
2022-08-16T16:08:24.024Z,5.57
2022-08-16T16:10:54.571Z,4.30
2022-08-16T16:13:22.085Z,4.30
2022-08-16T16:15:53.080Z,6.00
2022-08-16T16:18:21.615Z,3.53
2022-08-16T16:20:52.212Z,4.10
2022-08-16T16:23:23.526Z,4.03
2022-08-16T16:25:51.448Z,5.20
2022-08-16T16:29:05.654Z,6.43
2022-08-16T16:31:12.229Z,3.67
2022-08-16T16:33:40.949Z,4.80
2022-08-16T16:36:13.022Z,3.30
2022-08-16T16:38:42.894Z,3.70
2022-08-16T16:41:10.382Z,4.13
2022-08-16T16:43:40.781Z,3.87
2022-08-16T16:46:41.091Z,4.77
2022-08-16T16:48:57.609Z,3.53
2022-08-16T16:51:24.375Z,6.43
2022-08-16T16:53:55.811Z,3.73
2022-08-16T16:56:27.643Z,8.00
2022-08-16T16:59:00.872Z,3.37
2022-08-16T17:01:41.293Z,5.33
2022-08-16T17:04:22.519Z,4.20
2022-08-16T17:06:53.468Z,6.17
2022-08-16T17:09:24.063Z,3.80
2022-08-16T17:11:55.098Z,6.30
2022-08-16T17:14:32.824Z,7.57
2022-08-16T17:17:04.051Z,6.73
2022-08-16T17:19:31.653Z,13.63
2022-08-16T17:21:59.019Z,10.80
2022-08-16T17:24:26.332Z,19.40
2022-08-16T17:27:06.594Z,13.33
2022-08-16T17:29:33.643Z,8.67
2022-08-16T17:32:32.514Z,5.40
2022-08-16T17:34:50.739Z,24.17
2022-08-16T17:37:17.901Z,26.77
2022-08-16T17:39:59.891Z,35.37
2022-08-16T17:42:32.807Z,36.43
2022-08-16T17:45:00.097Z,18.73
2022-08-16T17:47:28.215Z,18.80
2022-08-16T17:49:54.988Z,20.43
2022-08-16T17:52:21.700Z,21.70
2022-08-16T17:54:48.401Z,11.57
2022-08-16T17:57:16.954Z,12.03
2022-08-16T17:59:43.908Z,11.50
2022-08-16T18:02:43.131Z,12.03
2022-08-16T18:04:59.026Z,14.70
2022-08-16T18:07:25.861Z,8.80
2022-08-16T18:09:52.665Z,10.50
2022-08-16T18:12:55.058Z,11.17
2022-08-16T18:15:11.242Z,7.83
2022-08-16T18:17:38.035Z,8.73
2022-08-16T18:20:08.696Z,9.40
2022-08-16T18:22:35.440Z,10.93
2022-08-16T18:25:05.111Z,8.50
2022-08-16T18:27:31.856Z,9.50
2022-08-16T18:29:58.684Z,9.63
2022-08-16T18:32:25.426Z,12.00
2022-08-16T18:34:52.570Z,9.60
2022-08-16T18:37:22.679Z,10.40
2022-08-16T18:39:49.443Z,12.60
2022-08-16T18:42:16.198Z,10.83
2022-08-16T18:44:44.395Z,10.00
2022-08-16T18:47:11.270Z,8.73
2022-08-16T18:49:38.746Z,12.40
2022-08-16T18:52:05.944Z,18.07
2022-08-16T18:54:34.253Z,11.43
2022-08-16T18:57:21.022Z,14.20
2022-08-16T18:59:47.776Z,14.80
2022-08-16T19:02:57.570Z,13.70
2022-08-16T19:05:13.719Z,13.00
2022-08-16T19:07:40.606Z,16.90
2022-08-16T19:10:09.872Z,17.37
2022-08-16T19:12:41.917Z,14.93
2022-08-16T19:15:13.529Z,22.80
2022-08-16T19:17:41.855Z,18.50
2022-08-16T19:20:11.031Z,22.63
2022-08-16T19:23:01.536Z,17.13
2022-08-16T19:25:47.883Z,16.53
2022-08-16T19:28:49.212Z,15.60
2022-08-16T19:31:04.724Z,14.50
2022-08-16T19:33:31.810Z,14.47
2022-08-16T19:35:58.639Z,13.83
2022-08-16T19:38:25.356Z,15.30
2022-08-16T19:40:53.410Z,15.37
2022-08-16T19:43:20.148Z,11.00
2022-08-16T19:45:46.806Z,10.33
2022-08-16T19:48:13.651Z,10.53
2022-08-16T19:50:40.862Z,8.20
2022-08-16T19:53:18.655Z,8.50
2022-08-16T19:55:47.424Z,11.03
2022-08-16T19:58:15.928Z,8.03
2022-08-16T20:00:43.613Z,12.77
2022-08-16T20:03:12.377Z,11.03
2022-08-16T20:05:41.206Z,9.60
2022-08-16T20:08:07.954Z,9.60
2022-08-16T20:10:34.990Z,10.00
2022-08-16T20:13:02.662Z,12.00
2022-08-16T20:15:31.766Z,12.03
2022-08-16T20:18:00.972Z,10.93
2022-08-16T20:20:27.997Z,9.47
2022-08-16T20:22:56.879Z,9.23
2022-08-16T20:25:28.357Z,8.17
2022-08-16T20:27:55.835Z,11.37
2022-08-16T20:30:23.010Z,9.40
2022-08-16T20:32:51.793Z,9.10
2022-08-16T20:35:20.841Z,7.93
2022-08-16T20:37:47.649Z,8.50
2022-08-16T20:40:28.124Z,11.30
2022-08-16T20:43:04.886Z,8.47
2022-08-16T20:45:31.990Z,10.00
2022-08-16T20:48:00.109Z,8.27
2022-08-16T20:50:27.515Z,9.03
2022-08-16T20:52:54.438Z,8.83
2022-08-16T20:55:21.239Z,8.43
2022-08-16T20:57:47.948Z,11.70
2022-08-16T21:00:18.935Z,9.40
2022-08-16T21:02:46.152Z,8.30
2022-08-16T21:05:24.125Z,13.67
2022-08-16T21:07:51.803Z,9.43
2022-08-16T21:10:19.706Z,9.70
2022-08-16T21:12:50.829Z,10.07
2022-08-16T21:15:17.802Z,9.17
2022-08-16T21:17:44.549Z,11.47
2022-08-16T21:20:11.856Z,7.60
2022-08-16T21:22:40.550Z,9.50
2022-08-16T21:25:10.784Z,9.87
2022-08-16T21:27:44.521Z,8.43
2022-08-16T21:30:32.212Z,9.30
2022-08-16T21:33:03.480Z,8.90
2022-08-16T21:35:30.227Z,9.20
2022-08-16T21:38:01.051Z,13.27
2022-08-16T21:40:44.966Z,8.20
2022-08-16T21:43:13.744Z,6.90
2022-08-16T21:45:43.710Z,7.50
2022-08-16T21:48:11.145Z,11.13
2022-08-16T21:50:39.824Z,10.17
2022-08-16T21:53:10.545Z,9.23
2022-08-16T21:55:42.740Z,6.63
2022-08-16T21:58:10.421Z,8.30
2022-08-16T22:00:38.343Z,7.73
2022-08-16T22:03:07.254Z,6.77
2022-08-16T22:05:34.685Z,7.53
2022-08-16T22:08:01.734Z,8.80
2022-08-16T22:11:07.313Z,8.30
2022-08-16T22:13:22.659Z,8.40
2022-08-16T22:15:50.223Z,8.40
2022-08-16T22:18:17.874Z,6.67
2022-08-16T22:20:45.219Z,7.93
2022-08-16T22:23:14.426Z,8.10
2022-08-16T22:25:44.872Z,9.60
2022-08-16T22:28:12.594Z,6.80
2022-08-16T22:30:39.700Z,7.90
2022-08-16T22:33:10.799Z,10.47
2022-08-16T22:35:43.331Z,7.60
2022-08-16T22:38:56.194Z,7.93
2022-08-16T22:40:58.720Z,8.07
2022-08-16T22:43:25.797Z,6.93
2022-08-16T22:45:52.913Z,6.50
2022-08-16T22:48:20.005Z,7.07
2022-08-16T22:50:46.729Z,6.10
2022-08-16T22:53:13.507Z,7.30
2022-08-16T22:55:40.720Z,7.20
2022-08-16T22:58:08.779Z,8.20
2022-08-16T23:00:36.349Z,7.90
2022-08-16T23:03:05.381Z,7.50
2022-08-16T23:05:34.288Z,6.30
2022-08-16T23:08:01.198Z,5.63
2022-08-16T23:10:29.150Z,7.67
2022-08-16T23:12:58.764Z,6.00
2022-08-16T23:15:28.220Z,6.27
2022-08-16T23:17:56.440Z,8.67
2022-08-16T23:20:28.846Z,7.70
2022-08-16T23:23:17.494Z,7.30
2022-08-16T23:25:48.659Z,8.33
2022-08-16T23:28:15.333Z,11.80
2022-08-16T23:30:43.453Z,7.07
2022-08-16T23:33:12.529Z,8.20
2022-08-16T23:35:45.397Z,12.67
2022-08-16T23:38:38.076Z,7.90
2022-08-16T23:41:01.692Z,9.20
2022-08-16T23:43:31.264Z,7.43
2022-08-16T23:46:01.892Z,10.30
2022-08-16T23:48:30.920Z,8.13
2022-08-16T23:51:17.604Z,12.37
2022-08-16T23:53:45.037Z,9.40
2022-08-16T23:56:13.753Z,8.23
2022-08-16T23:58:43.683Z,7.80
